Nova Cantu, Brazil
Current Conditions -  °F | °C
As of 5:00 AM on Monday 20 Oct 2014 (Local Time) from SBCA Reporting Station
Thunderstorm Thunderstorm  
Wind Chill: 64°   Ceiling: Unl
Heat Index: 64°   Visibility: 6mi
Dew Point: 61°   Wind: 16mph
Humidity: 88%   Direction: 320°NW
Pressure: NA   Gusts: NA
Location:  24.67°S, 52.57°W
Report Text: SBCA 200800Z 32014KT 9999 -TSRA FEW005 SCT030 FEW040CB 18/16 Q1017
Loading
Personal Weather Stations






























Interactive Weather Map
Tropical Storm Tracking
New forecast layout! Learn more

10-Day Weather Forecast

Advertisements
Track Severe Weather on mobile